sensor_id;sensor_type;location;lat;lon;timestamp;pressure;altitude;pressure_sealevel;temperature;humidity
76853;BME280;65825;52.232;10.566;2023-04-01T00:02:02;98711.19;;;10.11;86.31
76853;BME280;65825;52.232;10.566;2023-04-01T00:04:27;98713.84;;;10.11;85.82
76853;BME280;65825;52.232;10.566;2023-04-01T00:06:53;98719.00;;;10.13;86.16
76853;BME280;65825;52.232;10.566;2023-04-01T00:09:18;98715.22;;;10.17;85.16
76853;BME280;65825;52.232;10.566;2023-04-01T00:11:43;98714.50;;;10.15;85.30
76853;BME280;65825;52.232;10.566;2023-04-01T00:14:10;98716.19;;;10.16;85.69
76853;BME280;65825;52.232;10.566;2023-04-01T00:16:36;98713.72;;;10.13;85.55
76853;BME280;65825;52.232;10.566;2023-04-01T00:19:01;98711.19;;;10.11;84.80
76853;BME280;65825;52.232;10.566;2023-04-01T00:21:26;98712.50;;;10.04;85.28
76853;BME280;65825;52.232;10.566;2023-04-01T00:23:52;98714.44;;;10.01;84.76
76853;BME280;65825;52.232;10.566;2023-04-01T00:26:18;98716.22;;;10.00;85.06
76853;BME280;65825;52.232;10.566;2023-04-01T00:28:46;98713.50;;;10.02;84.40
76853;BME280;65825;52.232;10.566;2023-04-01T00:31:11;98714.44;;;10.01;84.82
76853;BME280;65825;52.232;10.566;2023-04-01T00:33:38;98716.13;;;10.02;84.93
76853;BME280;65825;52.232;10.566;2023-04-01T00:36:14;98714.28;;;10.04;83.68
76853;BME280;65825;52.232;10.566;2023-04-01T00:38:40;98720.22;;;10.07;82.66
76853;BME280;65825;52.232;10.566;2023-04-01T00:41:08;98709.59;;;10.09;82.10
76853;BME280;65825;52.232;10.566;2023-04-01T00:43:34;98707.88;;;10.08;81.48
76853;BME280;65825;52.232;10.566;2023-04-01T00:45:59;98711.28;;;10.10;81.96
76853;BME280;65825;52.232;10.566;2023-04-01T00:48:32;98705.22;;;10.08;82.30
76853;BME280;65825;52.232;10.566;2023-04-01T00:51:15;98715.22;;;10.17;82.36
76853;BME280;65825;52.232;10.566;2023-04-01T00:53:45;98706.94;;;10.23;81.76
76853;BME280;65825;52.232;10.566;2023-04-01T00:56:16;98706.56;;;10.15;81.40
76853;BME280;65825;52.232;10.566;2023-04-01T00:58:46;98702.69;;;10.20;81.04
76853;BME280;65825;52.232;10.566;2023-04-01T01:01:13;98702.53;;;10.23;81.22
76853;BME280;65825;52.232;10.566;2023-04-01T01:03:38;98710.72;;;10.19;81.20
76853;BME280;65825;52.232;10.566;2023-04-01T01:06:10;98712.78;;;10.14;80.94
76853;BME280;65825;52.232;10.566;2023-04-01T01:11:50;98722.09;;;10.19;81.23
76853;BME280;65825;52.232;10.566;2023-04-01T01:17:18;98713.47;;;10.17;80.91
76853;BME280;65825;52.232;10.566;2023-04-01T01:25:18;98710.41;;;10.09;81.13
76853;BME280;65825;52.232;10.566;2023-04-01T01:31:12;98709.75;;;10.06;82.34
76853;BME280;65825;52.232;10.566;2023-04-01T01:33:37;98705.81;;;10.13;81.27
76853;BME280;65825;52.232;10.566;2023-04-01T01:36:06;98709.38;;;10.12;82.13
76853;BME280;65825;52.232;10.566;2023-04-01T01:38:34;98708.25;;;10.16;82.49
76853;BME280;65825;52.232;10.566;2023-04-01T01:41:02;98713.53;;;10.16;82.20
76853;BME280;65825;52.232;10.566;2023-04-01T01:43:35;98707.56;;;9.98;82.64
76853;BME280;65825;52.232;10.566;2023-04-01T01:46:06;98710.38;;;9.95;82.79
76853;BME280;65825;52.232;10.566;2023-04-01T01:48:34;98707.72;;;9.95;83.70
76853;BME280;65825;52.232;10.566;2023-04-01T01:51:01;98713.69;;;9.99;83.21
76853;BME280;65825;52.232;10.566;2023-04-01T01:53:27;98715.38;;;10.00;83.88
76853;BME280;65825;52.232;10.566;2023-04-01T01:55:52;98716.72;;;10.07;83.18
76853;BME280;65825;52.232;10.566;2023-04-01T01:58:33;98704.31;;;10.09;82.66
76853;BME280;65825;52.232;10.566;2023-04-01T02:01:07;98705.16;;;10.09;82.62
76853;BME280;65825;52.232;10.566;2023-04-01T02:03:35;98715.03;;;10.06;82.89
76853;BME280;65825;52.232;10.566;2023-04-01T02:06:04;98716.00;;;10.05;83.85
76853;BME280;65825;52.232;10.566;2023-04-01T02:08:36;98713.50;;;10.02;83.57
76853;BME280;65825;52.232;10.566;2023-04-01T02:11:09;98720.25;;;9.92;84.08
76853;BME280;65825;52.232;10.566;2023-04-01T02:14:05;98721.47;;;10.00;84.36
76853;BME280;65825;52.232;10.566;2023-04-01T02:16:36;98722.34;;;10.01;84.80
76853;BME280;65825;52.232;10.566;2023-04-01T02:19:04;98722.94;;;10.06;83.66
76853;BME280;65825;52.232;10.566;2023-04-01T02:21:35;98717.16;;;9.99;83.72
76853;BME280;65825;52.232;10.566;2023-04-01T02:24:05;98714.97;;;9.92;84.58
76853;BME280;65825;52.232;10.566;2023-04-01T02:26:32;98717.34;;;9.96;84.46
76853;BME280;65825;52.232;10.566;2023-04-01T02:28:59;98719.88;;;9.84;85.01
76853;BME280;65825;52.232;10.566;2023-04-01T02:31:26;98716.69;;;9.93;84.99
76853;BME280;65825;52.232;10.566;2023-04-01T02:33:53;98723.94;;;10.03;85.29
76853;BME280;65825;52.232;10.566;2023-04-01T02:36:19;98722.00;;;10.07;85.06
76853;BME280;65825;52.232;10.566;2023-04-01T02:38:45;98721.31;;;10.03;84.78
76853;BME280;65825;52.232;10.566;2023-04-01T02:41:11;98724.63;;;10.07;84.85
76853;BME280;65825;52.232;10.566;2023-04-01T02:43:37;98726.53;;;10.05;84.38
76853;BME280;65825;52.232;10.566;2023-04-01T02:46:02;98728.34;;;10.03;83.99
76853;BME280;65825;52.232;10.566;2023-04-01T02:48:28;98723.19;;;10.01;84.13
76853;BME280;65825;52.232;10.566;2023-04-01T02:50:54;98732.75;;;10.04;84.34
76853;BME280;65825;52.232;10.566;2023-04-01T02:53:19;98734.28;;;9.92;84.68
76853;BME280;65825;52.232;10.566;2023-04-01T02:55:45;98734.09;;;9.95;84.46
76853;BME280;65825;52.232;10.566;2023-04-01T02:58:11;98730.25;;;10.01;84.31
76853;BME280;65825;52.232;10.566;2023-04-01T03:00:37;98730.63;;;9.95;83.84
76853;BME280;65825;52.232;10.566;2023-04-01T03:03:02;98735.81;;;9.96;84.13
76853;BME280;65825;52.232;10.566;2023-04-01T03:05:27;98737.22;;;10.02;84.01
76853;BME280;65825;52.232;10.566;2023-04-01T03:07:53;98725.06;;;9.99;84.05
76853;BME280;65825;52.232;10.566;2023-04-01T03:10:18;98735.69;;;9.98;84.58
76853;BME280;65825;52.232;10.566;2023-04-01T03:12:44;98741.31;;;10.07;84.22
76853;BME280;65825;52.232;10.566;2023-04-01T03:15:11;98729.09;;;10.06;85.56
76853;BME280;65825;52.232;10.566;2023-04-01T03:17:38;98740.38;;;10.08;85.56
76853;BME280;65825;52.232;10.566;2023-04-01T03:20:03;98735.44;;;10.02;86.26
76853;BME280;65825;52.232;10.566;2023-04-01T03:22:30;98740.22;;;9.96;86.99
76853;BME280;65825;52.232;10.566;2023-04-01T03:24:55;98742.78;;;9.97;86.44
76853;BME280;65825;52.232;10.566;2023-04-01T03:27:20;98738.53;;;9.95;86.60
76853;BME280;65825;52.232;10.566;2023-04-01T03:29:46;98738.69;;;9.92;86.68
76853;BME280;65825;52.232;10.566;2023-04-01T03:32:11;98741.91;;;9.83;87.30
76853;BME280;65825;52.232;10.566;2023-04-01T03:34:36;98736.72;;;9.81;87.33
76853;BME280;65825;52.232;10.566;2023-04-01T03:37:01;98746.97;;;9.86;86.93
76853;BME280;65825;52.232;10.566;2023-04-01T03:39:27;98739.28;;;9.83;87.75
76853;BME280;65825;52.232;10.566;2023-04-01T03:41:52;98742.56;;;9.86;86.92
76853;BME280;65825;52.232;10.566;2023-04-01T03:44:17;98740.47;;;9.77;87.20
76853;BME280;65825;52.232;10.566;2023-04-01T03:46:42;98746.41;;;9.81;87.78
76853;BME280;65825;52.232;10.566;2023-04-01T03:49:09;98740.38;;;9.79;88.22
76853;BME280;65825;52.232;10.566;2023-04-01T03:51:38;98753.66;;;9.77;87.83
76853;BME280;65825;52.232;10.566;2023-04-01T03:54:03;98753.72;;;9.76;87.56
76853;BME280;65825;52.232;10.566;2023-04-01T03:56:29;98754.94;;;9.70;88.36
76853;BME280;65825;52.232;10.566;2023-04-01T03:58:54;98750.34;;;9.74;87.77
76853;BME280;65825;52.232;10.566;2023-04-01T04:01:21;98752.97;;;9.74;88.01
76853;BME280;65825;52.232;10.566;2023-04-01T04:03:47;98754.25;;;9.67;88.21
76853;BME280;65825;52.232;10.566;2023-04-01T04:06:14;98757.75;;;9.67;87.52
76853;BME280;65825;52.232;10.566;2023-04-01T04:08:39;98757.84;;;9.66;87.71
76853;BME280;65825;52.232;10.566;2023-04-01T04:11:05;98759.13;;;9.59;87.68
76853;BME280;65825;52.232;10.566;2023-04-01T04:13:31;98767.63;;;9.64;87.95
76853;BME280;65825;52.232;10.566;2023-04-01T04:15:56;98759.06;;;9.60;88.17
76853;BME280;65825;52.232;10.566;2023-04-01T04:18:21;98765.00;;;9.64;87.70
76853;BME280;65825;52.232;10.566;2023-04-01T04:20:47;98764.63;;;9.70;87.89
76853;BME280;65825;52.232;10.566;2023-04-01T04:23:15;98768.66;;;9.61;88.35
76853;BME280;65825;52.232;10.566;2023-04-01T04:25:40;98764.91;;;9.65;88.59
76853;BME280;65825;52.232;10.566;2023-04-01T04:28:06;98770.25;;;9.64;88.40
76853;BME280;65825;52.232;10.566;2023-04-01T04:30:31;98768.38;;;9.66;88.30
76853;BME280;65825;52.232;10.566;2023-04-01T04:32:56;98765.44;;;9.56;88.99
76853;BME280;65825;52.232;10.566;2023-04-01T04:35:21;98767.78;;;9.61;88.84
76853;BME280;65825;52.232;10.566;2023-04-01T04:37:47;98773.91;;;9.61;88.82
76853;BME280;65825;52.232;10.566;2023-04-01T04:40:12;98772.81;;;9.65;88.51
76853;BME280;65825;52.232;10.566;2023-04-01T04:42:37;98780.97;;;9.61;89.12
76853;BME280;65825;52.232;10.566;2023-04-01T04:45:03;98772.22;;;9.60;88.70
76853;BME280;65825;52.232;10.566;2023-04-01T04:47:28;98776.91;;;9.55;88.93
76853;BME280;65825;52.232;10.566;2023-04-01T04:49:53;98776.06;;;9.55;88.96
76853;BME280;65825;52.232;10.566;2023-04-01T04:52:19;98779.34;;;9.58;88.94
76853;BME280;65825;52.232;10.566;2023-04-01T04:54:44;98775.09;;;9.56;89.02
76853;BME280;65825;52.232;10.566;2023-04-01T04:57:10;98771.72;;;9.54;87.90
76853;BME280;65825;52.232;10.566;2023-04-01T04:59:35;98779.56;;;9.55;88.57
76853;BME280;65825;52.232;10.566;2023-04-01T05:02:01;98788.28;;;9.56;88.92
76853;BME280;65825;52.232;10.566;2023-04-01T05:04:27;98787.38;;;9.57;88.98
76853;BME280;65825;52.232;10.566;2023-04-01T05:06:52;98785.31;;;9.62;88.73
76853;BME280;65825;52.232;10.566;2023-04-01T05:09:17;98788.69;;;9.64;88.02
76853;BME280;65825;52.232;10.566;2023-04-01T05:11:43;98783.25;;;9.67;88.46
76853;BME280;65825;52.232;10.566;2023-04-01T05:14:15;98789.28;;;9.69;87.66
76853;BME280;65825;52.232;10.566;2023-04-01T05:16:41;98793.53;;;9.71;88.40
76853;BME280;65825;52.232;10.566;2023-04-01T05:19:06;98783.06;;;9.70;88.14
76853;BME280;65825;52.232;10.566;2023-04-01T05:21:31;98791.56;;;9.75;88.14
76853;BME280;65825;52.232;10.566;2023-04-01T05:23:56;98788.41;;;9.84;87.84
76853;BME280;65825;52.232;10.566;2023-04-01T05:26:22;98792.72;;;9.85;87.08
76853;BME280;65825;52.232;10.566;2023-04-01T05:28:47;98794.25;;;9.89;86.71
76853;BME280;65825;52.232;10.566;2023-04-01T05:31:12;98806.25;;;9.79;87.76
76853;BME280;65825;52.232;10.566;2023-04-01T05:33:40;98807.44;;;9.89;86.87
76853;BME280;65825;52.232;10.566;2023-04-01T05:36:13;98804.06;;;10.01;86.81
76853;BME280;65825;52.232;10.566;2023-04-01T05:38:39;98804.44;;;9.95;86.55
76853;BME280;65825;52.232;10.566;2023-04-01T05:41:04;98812.06;;;9.99;86.84
76853;BME280;65825;52.232;10.566;2023-04-01T05:43:30;98807.97;;;10.09;87.08
76853;BME280;65825;52.232;10.566;2023-04-01T05:45:56;98811.38;;;10.11;86.75
76853;BME280;65825;52.232;10.566;2023-04-01T05:48:22;98808.47;;;10.16;85.79
76853;BME280;65825;52.232;10.566;2023-04-01T05:50:47;98811.75;;;10.19;85.26
76853;BME280;65825;52.232;10.566;2023-04-01T05:53:12;98814.03;;;10.25;84.78
76853;BME280;65825;52.232;10.566;2023-04-01T05:55:37;98813.06;;;10.26;85.38
76853;BME280;65825;52.232;10.566;2023-04-01T05:58:03;98813.19;;;10.25;84.86
76853;BME280;65825;52.232;10.566;2023-04-01T06:00:28;98818.19;;;10.29;85.65
76853;BME280;65825;52.232;10.566;2023-04-01T06:02:53;98816.41;;;10.30;85.09
76853;BME280;65825;52.232;10.566;2023-04-01T06:05:20;98824.41;;;10.28;85.15
76853;BME280;65825;52.232;10.566;2023-04-01T06:07:46;98824.31;;;10.30;85.73
76853;BME280;65825;52.232;10.566;2023-04-01T06:10:17;98821.84;;;10.27;85.42
76853;BME280;65825;52.232;10.566;2023-04-01T06:13:04;98825.06;;;10.32;84.85
76853;BME280;65825;52.232;10.566;2023-04-01T06:15:59;98834.56;;;10.34;84.91
76853;BME280;65825;52.232;10.566;2023-04-01T06:32:32;98840.91;;;10.74;83.79
76853;BME280;65825;52.232;10.566;2023-04-01T06:40:31;98846.56;;;11.24;81.75
76853;BME280;65825;52.232;10.566;2023-04-01T06:43:16;98848.31;;;11.37;81.46
76853;BME280;65825;52.232;10.566;2023-04-01T06:48:38;98846.00;;;11.59;80.24
76853;BME280;65825;52.232;10.566;2023-04-01T06:53:45;98847.03;;;11.97;79.91
76853;BME280;65825;52.232;10.566;2023-04-01T06:56:17;98847.97;;;12.09;78.38
76853;BME280;65825;52.232;10.566;2023-04-01T06:58:49;98849.56;;;12.11;78.31
76853;BME280;65825;52.232;10.566;2023-04-01T07:01:21;98851.53;;;12.34;77.67
76853;BME280;65825;52.232;10.566;2023-04-01T07:04:00;98852.91;;;12.40;77.30
76853;BME280;65825;52.232;10.566;2023-04-01T07:06:32;98860.22;;;12.36;77.22
76853;BME280;65825;52.232;10.566;2023-04-01T07:09:02;98854.06;;;12.48;78.10
76853;BME280;65825;52.232;10.566;2023-04-01T07:11:34;98852.94;;;12.65;77.99
76853;BME280;65825;52.232;10.566;2023-04-01T07:14:05;98855.16;;;12.83;76.20
76853;BME280;65825;52.232;10.566;2023-04-01T07:16:40;98855.25;;;13.19;75.95
76853;BME280;65825;52.232;10.566;2023-04-01T07:19:12;98855.91;;;13.46;72.38
76853;BME280;65825;52.232;10.566;2023-04-01T07:21:40;98856.28;;;13.89;71.58
76853;BME280;65825;52.232;10.566;2023-04-01T07:24:16;98858.19;;;14.23;69.70
76853;BME280;65825;52.232;10.566;2023-04-01T07:26:44;98858.09;;;14.35;70.27
76853;BME280;65825;52.232;10.566;2023-04-01T07:29:11;98865.59;;;14.41;69.19
76853;BME280;65825;52.232;10.566;2023-04-01T07:32:00;98864.56;;;14.20;69.21
76853;BME280;65825;52.232;10.566;2023-04-01T07:34:38;98867.34;;;14.30;69.74
76853;BME280;65825;52.232;10.566;2023-04-01T07:39:49;98875.94;;;15.67;65.73
76853;BME280;65825;52.232;10.566;2023-04-01T07:48:39;98877.47;;;18.14;54.64
76853;BME280;65825;52.232;10.566;2023-04-01T07:51:14;98876.06;;;18.86;54.88
76853;BME280;65825;52.232;10.566;2023-04-01T07:53:48;98879.16;;;18.05;56.95
76853;BME280;65825;52.232;10.566;2023-04-01T08:01:45;98890.84;;;15.58;61.66
76853;BME280;65825;52.232;10.566;2023-04-01T08:07:25;98892.41;;;15.50;63.37
76853;BME280;65825;52.232;10.566;2023-04-01T08:10:23;98901.88;;;15.43;65.72
76853;BME280;65825;52.232;10.566;2023-04-01T08:13:12;98899.09;;;15.33;65.01
76853;BME280;65825;52.232;10.566;2023-04-01T08:15:51;98901.75;;;15.44;63.52
76853;BME280;65825;52.232;10.566;2023-04-01T08:18:46;98904.44;;;14.77;65.50
76853;BME280;65825;52.232;10.566;2023-04-01T08:21:22;98907.22;;;14.41;67.90
76853;BME280;65825;52.232;10.566;2023-04-01T08:23:51;98911.88;;;14.26;68.85
76853;BME280;65825;52.232;10.566;2023-04-01T08:28:59;98915.31;;;14.03;66.60
76853;BME280;65825;52.232;10.566;2023-04-01T08:31:40;98920.47;;;14.17;67.71
76853;BME280;65825;52.232;10.566;2023-04-01T08:34:15;98916.56;;;14.23;67.83
76853;BME280;65825;52.232;10.566;2023-04-01T08:36:47;98918.00;;;14.96;65.77
76853;BME280;65825;52.232;10.566;2023-04-01T08:39:18;98916.81;;;15.11;63.57
76853;BME280;65825;52.232;10.566;2023-04-01T08:42:12;98914.06;;;15.56;64.54
76853;BME280;65825;52.232;10.566;2023-04-01T08:48:07;98919.97;;;14.36;65.25
76853;BME280;65825;52.232;10.566;2023-04-01T08:56:03;98921.88;;;13.87;67.32
76853;BME280;65825;52.232;10.566;2023-04-01T09:04:24;98927.47;;;15.55;64.11
76853;BME280;65825;52.232;10.566;2023-04-01T09:09:51;98931.94;;;16.30;60.47
76853;BME280;65825;52.232;10.566;2023-04-01T09:12:44;98933.06;;;16.16;60.95
76853;BME280;65825;52.232;10.566;2023-04-01T09:18:15;98940.44;;;15.59;60.95
76853;BME280;65825;52.232;10.566;2023-04-01T09:23:57;98936.00;;;15.03;62.35
76853;BME280;65825;52.232;10.566;2023-04-01T09:27:05;98935.91;;;15.27;61.07
76853;BME280;65825;52.232;10.566;2023-04-01T09:35:22;98946.78;;;16.01;58.49
76853;BME280;65825;52.232;10.566;2023-04-01T09:43:43;98943.50;;;18.42;52.81
76853;BME280;65825;52.232;10.566;2023-04-01T09:46:26;98944.88;;;19.12;48.82
76853;BME280;65825;52.232;10.566;2023-04-01T09:49:17;98947.75;;;19.84;46.11
76853;BME280;65825;52.232;10.566;2023-04-01T09:52:24;98941.81;;;21.22;42.59
76853;BME280;65825;52.232;10.566;2023-04-01T10:04:23;98959.47;;;20.54;42.07
76853;BME280;65825;52.232;10.566;2023-04-01T10:15:10;98962.47;;;20.51;42.94
76853;BME280;65825;52.232;10.566;2023-04-01T10:20:55;98963.25;;;18.30;47.40
76853;BME280;65825;52.232;10.566;2023-04-01T10:23:40;98968.75;;;17.79;49.07
76853;BME280;65825;52.232;10.566;2023-04-01T10:32:03;98967.06;;;17.28;52.22
76853;BME280;65825;52.232;10.566;2023-04-01T10:40:57;98980.25;;;16.68;54.19
76853;BME280;65825;52.232;10.566;2023-04-01T10:52:07;98985.75;;;16.87;53.68
76853;BME280;65825;52.232;10.566;2023-04-01T10:54:45;98993.47;;;16.90;53.66
76853;BME280;65825;52.232;10.566;2023-04-01T10:57:29;98995.13;;;16.70;55.31
76853;BME280;65825;52.232;10.566;2023-04-01T11:05:56;98991.59;;;17.01;54.57
76853;BME280;65825;52.232;10.566;2023-04-01T11:19:38;99004.69;;;16.73;54.81
76853;BME280;65825;52.232;10.566;2023-04-01T11:22:26;99004.19;;;16.79;55.12
76853;BME280;65825;52.232;10.566;2023-04-01T11:30:49;99010.25;;;16.27;56.78
76853;BME280;65825;52.232;10.566;2023-04-01T11:33:29;99012.59;;;15.99;57.07
76853;BME280;65825;52.232;10.566;2023-04-01T11:39:13;99007.66;;;15.61;57.80
76853;BME280;65825;52.232;10.566;2023-04-01T11:44:30;99018.00;;;15.42;61.01
76853;BME280;65825;52.232;10.566;2023-04-01T11:47:25;99021.47;;;15.32;62.36
76853;BME280;65825;52.232;10.566;2023-04-01T11:50:02;99020.25;;;15.25;61.50
76853;BME280;65825;52.232;10.566;2023-04-01T11:59:03;99039.53;;;15.39;62.78
76853;BME280;65825;52.232;10.566;2023-04-01T12:10:22;99035.22;;;15.49;64.71
76853;BME280;65825;52.232;10.566;2023-04-01T12:13:07;99047.06;;;15.56;63.54
76853;BME280;65825;52.232;10.566;2023-04-01T12:18:42;99051.41;;;15.68;64.37
76853;BME280;65825;52.232;10.566;2023-04-01T12:27:13;99056.25;;;15.74;63.06
76853;BME280;65825;52.232;10.566;2023-04-01T12:29:55;99059.66;;;15.76;62.81
76853;BME280;65825;52.232;10.566;2023-04-01T12:35:23;99062.41;;;15.53;65.34
76853;BME280;65825;52.232;10.566;2023-04-01T12:37:54;99070.50;;;15.51;64.47
76853;BME280;65825;52.232;10.566;2023-04-01T12:40:44;99070.03;;;15.57;65.50
76853;BME280;65825;52.232;10.566;2023-04-01T12:46:26;99068.69;;;15.52;66.52
76853;BME280;65825;52.232;10.566;2023-04-01T13:02:40;99091.66;;;15.42;67.82
76853;BME280;65825;52.232;10.566;2023-04-01T13:08:09;99090.69;;;15.54;65.95
76853;BME280;65825;52.232;10.566;2023-04-01T13:16:06;99101.06;;;14.88;69.63
76853;BME280;65825;52.232;10.566;2023-04-01T13:19:13;99104.13;;;14.71;70.04
76853;BME280;65825;52.232;10.566;2023-04-01T13:24:52;99111.97;;;14.96;69.07
76853;BME280;65825;52.232;10.566;2023-04-01T13:27:44;99110.81;;;15.00;69.86
76853;BME280;65825;52.232;10.566;2023-04-01T13:30:30;99120.41;;;14.90;69.98
76853;BME280;65825;52.232;10.566;2023-04-01T13:33:30;99116.16;;;14.64;71.15
76853;BME280;65825;52.232;10.566;2023-04-01T13:42:19;99130.13;;;14.42;72.97
76853;BME280;65825;52.232;10.566;2023-04-01T13:45:00;99127.94;;;14.24;73.93
76853;BME280;65825;52.232;10.566;2023-04-01T13:47:55;99131.84;;;14.06;73.16
76853;BME280;65825;52.232;10.566;2023-04-01T13:59:02;99149.59;;;13.29;74.35
76853;BME280;65825;52.232;10.566;2023-04-01T14:01:52;99147.59;;;13.20;74.68
76853;BME280;65825;52.232;10.566;2023-04-01T14:07:18;99164.59;;;12.89;75.48
76853;BME280;65825;52.232;10.566;2023-04-01T14:10:08;99170.22;;;12.71;76.86
76853;BME280;65825;52.232;10.566;2023-04-01T14:13:00;99160.72;;;12.54;76.34
76853;BME280;65825;52.232;10.566;2023-04-01T14:15:41;99165.25;;;12.38;78.15
76853;BME280;65825;52.232;10.566;2023-04-01T14:21:33;99175.88;;;12.24;77.60
76853;BME280;65825;52.232;10.566;2023-04-01T14:24:44;99182.03;;;12.11;78.51
76853;BME280;65825;52.232;10.566;2023-04-01T14:29:56;99192.47;;;11.84;78.88
76853;BME280;65825;52.232;10.566;2023-04-01T14:32:40;99205.78;;;11.69;79.17
76853;BME280;65825;52.232;10.566;2023-04-01T14:38:06;99199.53;;;11.70;79.73
76853;BME280;65825;52.232;10.566;2023-04-01T14:46:36;99222.44;;;11.40;79.97
76853;BME280;65825;52.232;10.566;2023-04-01T14:49:29;99222.22;;;11.29;79.66
76853;BME280;65825;52.232;10.566;2023-04-01T14:52:04;99226.84;;;11.25;79.80
76853;BME280;65825;52.232;10.566;2023-04-01T14:54:37;99234.00;;;11.08;79.32
76853;BME280;65825;52.232;10.566;2023-04-01T14:57:11;99239.97;;;10.96;80.61
76853;BME280;65825;52.232;10.566;2023-04-01T14:59:51;99236.06;;;11.03;80.53
76853;BME280;65825;52.232;10.566;2023-04-01T15:10:38;99258.03;;;11.03;80.16
76853;BME280;65825;52.232;10.566;2023-04-01T15:16:23;99275.41;;;11.07;80.29
76853;BME280;65825;52.232;10.566;2023-04-01T15:24:10;99298.06;;;10.96;79.87
76853;BME280;65825;52.232;10.566;2023-04-01T15:33:06;99307.97;;;11.08;80.31
76853;BME280;65825;52.232;10.566;2023-04-01T15:35:42;99306.31;;;10.90;79.91
76853;BME280;65825;52.232;10.566;2023-04-01T15:38:25;99312.03;;;10.98;80.10
76853;BME280;65825;52.232;10.566;2023-04-01T15:41:02;99324.44;;;10.96;80.11
76853;BME280;65825;52.232;10.566;2023-04-01T15:49:08;99331.50;;;10.80;79.67
76853;BME280;65825;52.232;10.566;2023-04-01T16:03:09;99347.50;;;10.44;79.73
76853;BME280;65825;52.232;10.566;2023-04-01T16:06:10;99356.59;;;10.39;80.27
76853;BME280;65825;52.232;10.566;2023-04-01T16:09:11;99362.19;;;10.33;80.29
76853;BME280;65825;52.232;10.566;2023-04-01T16:16:58;99370.91;;;9.99;80.53
76853;BME280;65825;52.232;10.566;2023-04-01T16:19:41;99384.91;;;10.01;80.63
76853;BME280;65825;52.232;10.566;2023-04-01T16:22:40;99392.31;;;9.93;80.62
76853;BME280;65825;52.232;10.566;2023-04-01T16:28:32;99394.00;;;9.77;80.07
76853;BME280;65825;52.232;10.566;2023-04-01T16:31:15;99397.69;;;9.73;81.38
76853;BME280;65825;52.232;10.566;2023-04-01T16:33:47;99394.50;;;9.67;80.18
76853;BME280;65825;52.232;10.566;2023-04-01T16:36:37;99408.25;;;9.73;80.63
76853;BME280;65825;52.232;10.566;2023-04-01T16:41:52;99413.84;;;9.49;81.14
76853;BME280;65825;52.232;10.566;2023-04-01T16:44:23;99419.41;;;9.43;81.42
76853;BME280;65825;52.232;10.566;2023-04-01T16:47:06;99426.59;;;9.39;81.61
76853;BME280;65825;52.232;10.566;2023-04-01T16:49:40;99430.28;;;9.35;81.95
76853;BME280;65825;52.232;10.566;2023-04-01T16:54:50;99442.88;;;9.29;82.80
76853;BME280;65825;52.232;10.566;2023-04-01T16:57:23;99452.16;;;8.99;83.22
76853;BME280;65825;52.232;10.566;2023-04-01T17:02:39;99469.53;;;9.03;82.25
76853;BME280;65825;52.232;10.566;2023-04-01T17:05:12;99453.50;;;8.89;82.56
76853;BME280;65825;52.232;10.566;2023-04-01T17:10:36;99485.16;;;8.67;83.55
76853;BME280;65825;52.232;10.566;2023-04-01T17:16:39;99483.25;;;8.71;82.68
76853;BME280;65825;52.232;10.566;2023-04-01T17:21:45;99484.28;;;8.47;83.42
76853;BME280;65825;52.232;10.566;2023-04-01T17:32:19;99525.75;;;8.20;83.67
76853;BME280;65825;52.232;10.566;2023-04-01T17:40:36;99537.97;;;7.98;83.22
76853;BME280;65825;52.232;10.566;2023-04-01T17:46:03;99560.22;;;7.90;84.32
76853;BME280;65825;52.232;10.566;2023-04-01T17:48:48;99563.47;;;7.96;84.41
76853;BME280;65825;52.232;10.566;2023-04-01T17:54:20;99577.69;;;7.91;84.13
76853;BME280;65825;52.232;10.566;2023-04-01T17:59:40;99569.22;;;7.84;84.60
76853;BME280;65825;52.232;10.566;2023-04-01T18:02:25;99581.75;;;7.76;84.72
76853;BME280;65825;52.232;10.566;2023-04-01T18:07:45;99603.19;;;7.89;84.27
76853;BME280;65825;52.232;10.566;2023-04-01T18:10:27;99613.34;;;7.75;84.14
76853;BME280;65825;52.232;10.566;2023-04-01T18:13:15;99609.13;;;7.71;84.31
76853;BME280;65825;52.232;10.566;2023-04-01T18:24:30;99628.63;;;7.41;85.85
76853;BME280;65825;52.232;10.566;2023-04-01T18:29:40;99644.34;;;7.42;84.99
76853;BME280;65825;52.232;10.566;2023-04-01T18:32:14;99650.41;;;7.43;84.70
76853;BME280;65825;52.232;10.566;2023-04-01T18:37:25;99665.16;;;7.47;84.34
76853;BME280;65825;52.232;10.566;2023-04-01T18:40:10;99666.22;;;7.41;84.15
76853;BME280;65825;52.232;10.566;2023-04-01T18:42:55;99669.19;;;7.32;84.68
76853;BME280;65825;52.232;10.566;2023-04-01T18:45:26;99675.50;;;7.27;84.67
76853;BME280;65825;52.232;10.566;2023-04-01T18:48:03;99674.91;;;7.19;84.53
76853;BME280;65825;52.232;10.566;2023-04-01T18:50:40;99696.00;;;7.16;84.42
76853;BME280;65825;52.232;10.566;2023-04-01T18:55:56;99710.09;;;7.13;85.16
76853;BME280;65825;52.232;10.566;2023-04-01T18:58:28;99712.75;;;7.12;85.06
76853;BME280;65825;52.232;10.566;2023-04-01T19:01:05;99712.66;;;7.15;85.20
76853;BME280;65825;52.232;10.566;2023-04-01T19:06:15;99733.31;;;6.98;85.27
76853;BME280;65825;52.232;10.566;2023-04-01T19:08:44;99742.03;;;7.00;85.50
76853;BME280;65825;52.232;10.566;2023-04-01T19:14:03;99753.47;;;6.97;84.49
76853;BME280;65825;52.232;10.566;2023-04-01T19:16:52;99758.16;;;6.88;84.95
76853;BME280;65825;52.232;10.566;2023-04-01T19:25:22;99774.78;;;6.87;85.53
76853;BME280;65825;52.232;10.566;2023-04-01T19:27:53;99772.81;;;6.95;85.62
76853;BME280;65825;52.232;10.566;2023-04-01T19:30:32;99773.19;;;6.83;85.39
76853;BME280;65825;52.232;10.566;2023-04-01T19:33:34;99774.22;;;6.77;86.39
76853;BME280;65825;52.232;10.566;2023-04-01T19:38:56;99787.09;;;6.85;86.12
76853;BME280;65825;52.232;10.566;2023-04-01T19:41:44;99797.13;;;6.72;85.45